Home   Weather   United Kingdom   Glasgow   Past weeks
Flag for United Kingdom

Past Weather in Glasgow, Scotland, United Kingdom — June 2021

Currently: 50 °F. Light rain. Partly cloudy. (Weather station: Glasgow Airport, United Kingdom). See more current weather

June 2021 Weather in Glasgow — Graph

°F

High & Low Weather Summary for June 2021

 TemperatureHumidityPressure
High77 °F (Jun 29, 2:20 pm)100% (Jun 9, 10:20 pm)30.27 "Hg (Jun 9, 10:20 pm)
Low37 °F (Jun 22, 5:20 am)37% (Jun 2, 6:50 pm)29.77 "Hg (Jun 16, 12:50 am)
Average58 °F75%30.07 "Hg
* Reported Jun 1 12:20 am — Jun 30 11:50 pm, Glasgow. Weather by CustomWeather, © 2022

Note: Actual official high and low records may vary slightly from our data, if they occured in-between our weather recording intervals... More about our weather records

Glasgow Weather History for June 1, 2021

Scroll right to see more
 ConditionsComfort  
Time TempWeatherWind HumidityBarometerVisibility
12:20 am
Tue, Jun 1
59 °FRefreshingly cool.6 mph55%30.04 "HgN/A
12:50 am55 °FCool.7 mph63%30.04 "HgN/A
1:20 am54 °FCool.6 mph67%30.04 "HgN/A
1:50 am52 °FCool.6 mph72%30.01 "HgN/A
2:20 am54 °FCool.5 mph72%30.01 "HgN/A
2:50 am54 °FCool.8 mph77%30.01 "HgN/A
3:20 am54 °FCool.8 mph77%30.01 "HgN/A
3:50 am54 °FCool.7 mph77%30.01 "HgN/A
4:20 am54 °FCool.7 mph77%30.01 "HgN/A
4:50 am52 °FCool.3 mph88%30.01 "HgN/A
5:20 am52 °FCool.6 mph88%30.01 "HgN/A
5:50 am54 °FCool.7 mph88%30.01 "HgN/A
6:20 am55 °FCool.7 mph82%30.01 "HgN/A
6:50 am55 °FCool.5 mph88%30.01 "HgN/A
7:50 am61 °FCool.7 mph77%30.01 "HgN/A
8:20 am61 °FCool.7 mph77%30.01 "HgN/A
8:50 am63 °FMild.6 mph73%30.01 "HgN/A
9:20 am63 °FMild.7 mph77%30.01 "HgN/A
9:50 am64 °FMild.7 mph73%30.01 "HgN/A
10:20 am66 °FMild.3 mph68%30.01 "HgN/A
10:50 am68 °FPassing clouds.3 mph64%30.01 "HgN/A
11:20 am68 °FScattered clouds.6 mph64%30.01 "HgN/A
11:50 am70 °FMild.6 mph60%30.01 "HgN/A
12:20 pm70 °FPassing clouds.3 mph57%29.98 "HgN/A
12:50 pm73 °FScattered clouds.7 mph53%29.98 "HgN/A
1:20 pm72 °FPartly sunny.7 mph50%29.98 "HgN/A
1:50 pm73 °FMild.7 mph47%29.98 "HgN/A
2:20 pm75 °FMild.14 mph44%29.98 "HgN/A
2:50 pm73 °FMild.12 mph47%29.98 "HgN/A
3:20 pm73 °FMild.13 mph47%29.95 "HgN/A
3:50 pm73 °FMild.10 mph47%29.95 "HgN/A
4:20 pm73 °FMild.9 mph47%29.95 "HgN/A
4:50 pm73 °FMild.10 mph50%29.95 "HgN/A
5:20 pm73 °FMild.9 mph47%29.95 "HgN/A
5:50 pm73 °FMild.6 mph47%29.95 "HgN/A
6:20 pm73 °FMild.5 mph47%29.95 "HgN/A
6:50 pm73 °FMild.6 mph44%29.95 "HgN/A
7:20 pm70 °FMild.6 mph60%29.95 "HgN/A
7:50 pm68 °FMild.12 mph60%29.98 "HgN/A
8:20 pm66 °FMild.10 mph60%29.98 "HgN/A
8:50 pm66 °FMild.10 mph60%29.98 "HgN/A
9:20 pm64 °FMild.13 mph64%29.98 "HgN/A
9:50 pm63 °FMild.13 mph68%29.98 "HgN/A
10:20 pm63 °FMild.12 mph68%30.01 "HgN/A
10:50 pm61 °FCool.13 mph72%30.01 "HgN/A
11:20 pm59 °FCool.12 mph77%30.01 "HgN/A
11:50 pm57 °FCool.13 mph77%30.01 "HgN/A
Weather by CustomWeather, © 2022

See weather overview